createdAt,value
2023-02-05T00:01:31.322Z,3.30
2023-02-05T00:06:33.057Z,3.40
2023-02-05T00:11:34.723Z,3.20
2023-02-05T00:16:37.214Z,3.20
2023-02-05T00:21:38.961Z,3.00
2023-02-05T00:26:41.577Z,2.90
2023-02-05T00:31:43.556Z,2.90
2023-02-05T00:36:45.344Z,2.90
2023-02-05T00:41:47.005Z,2.80
2023-02-05T00:46:48.723Z,2.90
2023-02-05T00:51:50.377Z,2.70
2023-02-05T00:56:52.025Z,2.40
2023-02-05T01:01:53.708Z,2.40
2023-02-05T01:06:55.351Z,2.50
2023-02-05T01:11:57.063Z,2.70
2023-02-05T01:16:58.696Z,2.50
2023-02-05T01:22:00.601Z,2.50
2023-02-05T01:27:02.247Z,2.40
2023-02-05T01:32:04.088Z,2.50
2023-02-05T01:37:05.744Z,2.40
2023-02-05T01:42:15.754Z,2.10
2023-02-05T01:47:17.409Z,2.10
2023-02-05T01:52:19.342Z,2.30
2023-02-05T01:57:23.824Z,2.40
2023-02-05T02:02:26.200Z,2.30
2023-02-05T02:07:27.878Z,2.20
2023-02-05T02:12:33.709Z,2.40
2023-02-05T02:17:39.262Z,2.40
2023-02-05T02:23:12.044Z,2.40
2023-02-05T02:28:26.073Z,2.40
2023-02-05T02:33:47.739Z,2.40
2023-02-05T02:39:08.993Z,2.30
2023-02-05T02:44:21.007Z,2.20
2023-02-05T02:49:32.141Z,2.20
2023-02-05T02:54:39.001Z,2.20
2023-02-05T02:59:42.937Z,2.20
2023-02-05T03:04:51.855Z,1.80
2023-02-05T03:10:11.695Z,1.60
2023-02-05T03:15:13.669Z,1.80
2023-02-05T03:20:24.892Z,1.90
2023-02-05T03:25:28.957Z,1.70
2023-02-05T03:31:06.790Z,1.70
2023-02-05T03:36:29.846Z,2.00
2023-02-05T03:42:05.270Z,2.00
2023-02-05T03:47:37.992Z,2.00
2023-02-05T03:52:45.298Z,2.00
2023-02-05T03:57:56.865Z,1.90
2023-02-05T04:02:58.639Z,2.10
2023-02-05T04:08:00.426Z,2.00
2023-02-05T04:13:02.099Z,2.10
2023-02-05T04:18:03.817Z,2.10
2023-02-05T04:23:05.480Z,1.70
2023-02-05T04:28:07.558Z,1.70
2023-02-05T04:33:09.233Z,1.80
2023-02-05T04:38:10.957Z,1.70
2023-02-05T04:43:12.599Z,1.80
2023-02-05T04:48:14.235Z,2.10
2023-02-05T04:53:15.907Z,2.20
2023-02-05T04:58:18.157Z,2.00
2023-02-05T05:03:19.811Z,2.20
2023-02-05T05:08:21.548Z,2.30
2023-02-05T05:13:23.333Z,2.40
2023-02-05T05:18:24.966Z,2.50
2023-02-05T05:23:26.960Z,2.60
2023-02-05T05:28:28.645Z,2.80
2023-02-05T05:33:30.368Z,3.00
2023-02-05T05:38:32.059Z,3.00
2023-02-05T05:43:48.729Z,2.70
2023-02-05T05:48:55.822Z,2.80
2023-02-05T05:53:57.642Z,3.00
2023-02-05T05:58:59.359Z,3.20
2023-02-05T06:04:03.626Z,3.20
2023-02-05T06:09:05.734Z,3.30
2023-02-05T06:14:07.365Z,3.40
2023-02-05T06:19:09.097Z,3.20
2023-02-05T06:24:10.779Z,3.30
2023-02-05T06:29:12.457Z,2.90
2023-02-05T06:34:14.145Z,2.70
2023-02-05T06:39:15.841Z,3.00
2023-02-05T06:44:17.497Z,3.10
2023-02-05T06:49:19.219Z,3.20
2023-02-05T06:54:21.213Z,3.40
2023-02-05T06:59:22.921Z,3.50
2023-02-05T07:04:24.611Z,3.70
2023-02-05T07:09:26.439Z,3.80
2023-02-05T07:14:28.303Z,3.70
2023-02-05T07:19:29.954Z,3.50
2023-02-05T07:24:31.835Z,3.30
2023-02-05T07:29:33.539Z,3.60
2023-02-05T07:34:35.485Z,4.00
2023-02-05T07:39:37.150Z,4.20
2023-02-05T07:44:38.792Z,4.50
2023-02-05T07:49:40.464Z,4.50
2023-02-05T07:54:42.208Z,4.70
2023-02-05T07:59:43.896Z,4.60
2023-02-05T08:04:45.612Z,4.70
2023-02-05T08:09:47.307Z,4.70
2023-02-05T08:14:49.180Z,4.70
2023-02-05T08:19:51.070Z,4.80
2023-02-05T08:24:52.718Z,4.50
2023-02-05T08:29:54.522Z,4.40
2023-02-05T08:34:56.305Z,4.60
2023-02-05T08:39:58.070Z,4.60
2023-02-05T08:45:00.035Z,4.60
2023-02-05T08:50:03.495Z,4.50
2023-02-05T08:55:05.602Z,4.50
2023-02-05T09:00:08.200Z,4.60
2023-02-05T09:05:10.245Z,4.10
2023-02-05T09:10:13.564Z,3.90
2023-02-05T09:15:15.277Z,4.00
2023-02-05T09:20:17.567Z,4.30
2023-02-05T09:25:19.276Z,4.60
2023-02-05T09:30:20.982Z,4.80
2023-02-05T09:35:22.679Z,5.00
2023-02-05T09:40:29.423Z,5.30
2023-02-05T09:45:39.928Z,5.50
2023-02-05T09:50:42.814Z,5.70
2023-02-05T09:55:46.322Z,5.80
2023-02-05T10:01:01.024Z,5.80
2023-02-05T10:06:22.124Z,5.90
2023-02-05T10:11:46.499Z,6.10
2023-02-05T10:16:57.027Z,6.20
2023-02-05T10:22:28.485Z,6.20
2023-02-05T10:27:46.061Z,6.30
2023-02-05T10:33:18.739Z,6.20
2023-02-05T10:38:24.245Z,6.10
2023-02-05T10:43:40.548Z,6.10
2023-02-05T10:48:49.999Z,6.10
2023-02-05T10:53:52.365Z,6.00
2023-02-05T10:59:01.090Z,5.80
2023-02-05T11:04:10.914Z,5.70
2023-02-05T11:09:25.050Z,5.80
2023-02-05T11:14:37.476Z,5.80
2023-02-05T11:19:39.642Z,5.80
2023-02-05T11:24:41.335Z,5.90
2023-02-05T11:29:43.739Z,5.70
2023-02-05T11:34:45.851Z,5.40
2023-02-05T11:39:53.857Z,5.30
2023-02-05T11:44:58.811Z,5.40
2023-02-05T11:50:01.911Z,5.90
2023-02-05T11:55:05.154Z,6.30
2023-02-05T12:00:09.582Z,6.50
2023-02-05T12:05:23.911Z,6.50
2023-02-05T12:11:01.133Z,6.60
2023-02-05T12:16:14.383Z,6.80
2023-02-05T12:21:27.780Z,6.90
2023-02-05T12:26:42.411Z,6.80
2023-02-05T12:32:08.444Z,6.90
2023-02-05T12:37:27.221Z,6.80
2023-02-05T12:42:33.755Z,7.00
2023-02-05T12:47:47.556Z,7.10
2023-02-05T12:53:01.286Z,7.10
2023-02-05T12:58:05.774Z,7.30
2023-02-05T13:03:30.557Z,7.60
2023-02-05T13:08:49.105Z,7.60
2023-02-05T13:13:56.350Z,7.60
2023-02-05T13:19:13.028Z,7.50
2023-02-05T13:24:43.206Z,7.30
2023-02-05T13:29:51.520Z,7.30
2023-02-05T13:34:55.449Z,7.20
2023-02-05T13:40:21.861Z,7.10
2023-02-05T13:46:00.280Z,7.10
2023-02-05T13:51:21.854Z,7.00
2023-02-05T13:56:52.272Z,7.00
2023-02-05T14:01:57.970Z,7.10
2023-02-05T14:07:04.224Z,7.00
2023-02-05T14:12:09.814Z,7.00
2023-02-05T14:17:32.689Z,7.00
2023-02-05T14:22:43.623Z,6.90
2023-02-05T14:27:50.215Z,7.00
2023-02-05T14:32:51.996Z,6.90
2023-02-05T14:37:58.038Z,6.90
2023-02-05T14:43:16.491Z,6.70
2023-02-05T14:48:29.860Z,6.50
2023-02-05T14:53:32.899Z,6.30
2023-02-05T14:58:44.933Z,6.10
2023-02-05T15:03:46.691Z,6.20
2023-02-05T15:09:01.040Z,6.30
2023-02-05T15:14:41.480Z,6.40
2023-02-05T15:19:52.675Z,6.40
2023-02-05T15:24:56.346Z,6.10
2023-02-05T15:29:58.451Z,6.00
2023-02-05T15:35:07.396Z,5.90
2023-02-05T15:40:27.733Z,5.40
2023-02-05T15:45:34.422Z,5.50
2023-02-05T15:50:49.957Z,5.50
2023-02-05T15:55:51.961Z,5.00
2023-02-05T16:00:56.215Z,5.20
2023-02-05T16:05:57.993Z,5.50
2023-02-05T16:11:05.341Z,5.80
2023-02-05T16:16:19.007Z,5.70
2023-02-05T16:21:30.934Z,5.70
2023-02-05T16:26:46.330Z,5.60
2023-02-05T16:31:48.464Z,5.70
2023-02-05T16:36:52.437Z,5.80
2023-02-05T16:42:09.346Z,5.70
2023-02-05T16:47:19.693Z,5.80
2023-02-05T16:52:33.172Z,5.80
2023-02-05T16:57:38.467Z,5.40
2023-02-05T17:02:42.051Z,5.20
2023-02-05T17:07:43.764Z,5.60
2023-02-05T17:13:01.691Z,5.70
2023-02-05T17:18:18.736Z,5.90
2023-02-05T17:23:20.474Z,6.00
2023-02-05T17:28:27.476Z,5.90
2023-02-05T17:33:29.440Z,6.00
2023-02-05T17:38:31.178Z,6.00
2023-02-05T17:43:32.927Z,6.00
2023-02-05T17:48:34.574Z,6.10
2023-02-05T17:53:36.233Z,6.30
2023-02-05T17:58:37.894Z,6.10
2023-02-05T18:03:39.600Z,6.10
2023-02-05T18:08:42.170Z,6.20
2023-02-05T18:13:43.860Z,6.20
2023-02-05T18:18:45.564Z,6.20
2023-02-05T18:23:50.406Z,6.20
2023-02-05T18:28:52.217Z,6.30
2023-02-05T18:33:54.146Z,6.30
2023-02-05T18:38:57.524Z,6.30
2023-02-05T18:43:59.469Z,6.30
2023-02-05T18:49:01.401Z,6.10
2023-02-05T18:54:06.532Z,6.30
2023-02-05T18:59:12.808Z,6.30
2023-02-05T19:04:15.500Z,6.30
2023-02-05T19:09:17.460Z,6.30
2023-02-05T19:14:20.901Z,6.20
2023-02-05T19:19:25.164Z,6.30
2023-02-05T19:24:27.050Z,6.30
2023-02-05T19:29:28.983Z,6.30
2023-02-05T19:34:30.764Z,6.30
2023-02-05T19:39:32.672Z,6.30
2023-02-05T19:44:34.387Z,6.30
2023-02-05T19:49:36.185Z,6.40
2023-02-05T19:54:37.918Z,6.40
2023-02-05T19:59:39.554Z,6.40
2023-02-05T20:04:42.176Z,6.40
2023-02-05T20:09:43.959Z,6.30
2023-02-05T20:14:45.593Z,6.30
2023-02-05T20:19:47.244Z,6.40
2023-02-05T20:24:48.917Z,6.30
2023-02-05T20:30:09.176Z,6.30
2023-02-05T20:35:10.862Z,6.30
2023-02-05T20:40:12.920Z,6.20
2023-02-05T20:45:14.681Z,6.10
2023-02-05T20:50:16.534Z,6.20
2023-02-05T20:55:18.212Z,6.20
2023-02-05T21:00:21.033Z,6.10
2023-02-05T21:05:22.690Z,6.10
2023-02-05T21:10:24.359Z,6.00
2023-02-05T21:15:26.684Z,6.00
2023-02-05T21:20:28.366Z,6.00
2023-02-05T21:25:30.043Z,5.90
2023-02-05T21:30:31.780Z,5.90
2023-02-05T21:35:37.651Z,5.80
2023-02-05T21:40:39.444Z,5.80
2023-02-05T21:45:41.124Z,5.90
2023-02-05T21:50:42.814Z,5.90
2023-02-05T21:55:44.523Z,5.90
2023-02-05T22:00:46.350Z,6.00
2023-02-05T22:05:48.010Z,5.80
2023-02-05T22:10:49.684Z,5.90
2023-02-05T22:16:08.196Z,5.90
2023-02-05T22:21:18.733Z,6.00
2023-02-05T22:26:24.269Z,6.10
2023-02-05T22:31:28.156Z,6.00
2023-02-05T22:36:32.111Z,6.10
2023-02-05T22:41:36.609Z,6.10
2023-02-05T22:46:41.035Z,6.10
2023-02-05T22:51:43.340Z,6.10
2023-02-05T22:56:45.732Z,6.10
2023-02-05T23:01:47.402Z,6.00
2023-02-05T23:06:49.066Z,6.10
2023-02-05T23:11:50.797Z,6.10
2023-02-05T23:16:52.461Z,6.00
2023-02-05T23:21:54.211Z,6.10
2023-02-05T23:26:55.884Z,6.10
2023-02-05T23:31:57.562Z,6.10
2023-02-05T23:36:59.222Z,6.00
2023-02-05T23:42:01.130Z,6.00
2023-02-05T23:47:02.863Z,6.10
2023-02-05T23:52:04.721Z,6.10
2023-02-05T23:57:06.389Z,6.10
